sensor_id;sensor_type;location;lat;lon;timestamp;P1;durP1;ratioP1;P2;durP2;ratioP2
78877;SDS011;68257;43.514;1.498;2024-01-06T00:01:45;3.60;;;1.30;;
78877;SDS011;68257;43.514;1.498;2024-01-06T00:04:11;3.00;;;1.10;;
78877;SDS011;68257;43.514;1.498;2024-01-06T00:06:36;3.40;;;1.37;;
78877;SDS011;68257;43.514;1.498;2024-01-06T00:09:02;3.80;;;1.20;;
78877;SDS011;68257;43.514;1.498;2024-01-06T00:11:27;2.85;;;1.20;;
78877;SDS011;68257;43.514;1.498;2024-01-06T00:13:52;3.37;;;1.13;;
78877;SDS011;68257;43.514;1.498;2024-01-06T00:16:18;4.60;;;1.80;;
78877;SDS011;68257;43.514;1.498;2024-01-06T00:18:44;4.43;;;1.35;;
78877;SDS011;68257;43.514;1.498;2024-01-06T00:21:10;4.53;;;1.40;;
78877;SDS011;68257;43.514;1.498;2024-01-06T00:23:35;4.55;;;1.65;;
78877;SDS011;68257;43.514;1.498;2024-01-06T00:26:00;4.07;;;1.63;;
78877;SDS011;68257;43.514;1.498;2024-01-06T00:28:27;4.07;;;1.63;;
78877;SDS011;68257;43.514;1.498;2024-01-06T00:30:52;5.22;;;1.65;;
78877;SDS011;68257;43.514;1.498;2024-01-06T00:33:18;4.27;;;1.73;;
78877;SDS011;68257;43.514;1.498;2024-01-06T00:35:43;5.33;;;2.10;;
78877;SDS011;68257;43.514;1.498;2024-01-06T00:38:09;4.77;;;2.03;;
78877;SDS011;68257;43.514;1.498;2024-01-06T00:40:34;5.33;;;2.00;;
78877;SDS011;68257;43.514;1.498;2024-01-06T00:43:00;5.00;;;1.90;;
78877;SDS011;68257;43.514;1.498;2024-01-06T00:45:25;5.17;;;2.00;;
78877;SDS011;68257;43.514;1.498;2024-01-06T00:47:50;3.70;;;2.07;;
78877;SDS011;68257;43.514;1.498;2024-01-06T00:50:17;8.23;;;2.50;;
78877;SDS011;68257;43.514;1.498;2024-01-06T00:52:45;4.18;;;2.20;;
78877;SDS011;68257;43.514;1.498;2024-01-06T00:55:10;5.90;;;2.13;;
78877;SDS011;68257;43.514;1.498;2024-01-06T00:57:36;7.13;;;2.33;;
78877;SDS011;68257;43.514;1.498;2024-01-06T01:00:02;6.30;;;2.42;;
78877;SDS011;68257;43.514;1.498;2024-01-06T01:02:28;4.80;;;2.30;;
78877;SDS011;68257;43.514;1.498;2024-01-06T01:04:53;3.83;;;2.10;;
78877;SDS011;68257;43.514;1.498;2024-01-06T01:07:19;6.03;;;2.20;;
78877;SDS011;68257;43.514;1.498;2024-01-06T01:09:44;4.47;;;1.80;;
78877;SDS011;68257;43.514;1.498;2024-01-06T01:12:10;6.00;;;1.90;;
78877;SDS011;68257;43.514;1.498;2024-01-06T01:14:35;6.43;;;2.23;;
78877;SDS011;68257;43.514;1.498;2024-01-06T01:17:00;7.60;;;2.70;;
78877;SDS011;68257;43.514;1.498;2024-01-06T01:19:26;4.40;;;2.25;;
78877;SDS011;68257;43.514;1.498;2024-01-06T01:21:51;4.37;;;1.83;;
78877;SDS011;68257;43.514;1.498;2024-01-06T01:24:20;6.47;;;2.45;;
78877;SDS011;68257;43.514;1.498;2024-01-06T01:26:46;5.33;;;2.40;;
78877;SDS011;68257;43.514;1.498;2024-01-06T01:29:12;4.35;;;1.85;;
78877;SDS011;68257;43.514;1.498;2024-01-06T01:31:37;4.60;;;2.20;;
78877;SDS011;68257;43.514;1.498;2024-01-06T01:34:02;7.30;;;2.43;;
78877;SDS011;68257;43.514;1.498;2024-01-06T01:36:28;4.20;;;2.27;;
78877;SDS011;68257;43.514;1.498;2024-01-06T01:38:53;4.60;;;2.20;;
78877;SDS011;68257;43.514;1.498;2024-01-06T01:41:18;4.23;;;2.20;;
78877;SDS011;68257;43.514;1.498;2024-01-06T01:43:45;5.07;;;2.10;;
78877;SDS011;68257;43.514;1.498;2024-01-06T01:46:10;5.32;;;2.00;;
78877;SDS011;68257;43.514;1.498;2024-01-06T01:48:36;6.87;;;1.97;;
78877;SDS011;68257;43.514;1.498;2024-01-06T01:51:01;5.23;;;1.97;;
78877;SDS011;68257;43.514;1.498;2024-01-06T01:53:27;5.70;;;2.10;;
78877;SDS011;68257;43.514;1.498;2024-01-06T01:55:52;5.40;;;2.10;;
78877;SDS011;68257;43.514;1.498;2024-01-06T01:58:18;5.47;;;2.23;;
78877;SDS011;68257;43.514;1.498;2024-01-06T02:00:43;4.57;;;1.98;;
78877;SDS011;68257;43.514;1.498;2024-01-06T02:03:09;4.38;;;1.60;;
78877;SDS011;68257;43.514;1.498;2024-01-06T02:05:37;5.80;;;2.00;;
78877;SDS011;68257;43.514;1.498;2024-01-06T02:08:02;6.65;;;2.10;;
78877;SDS011;68257;43.514;1.498;2024-01-06T02:10:28;6.57;;;1.80;;
78877;SDS011;68257;43.514;1.498;2024-01-06T02:12:55;5.95;;;2.03;;
78877;SDS011;68257;43.514;1.498;2024-01-06T02:15:21;5.10;;;1.83;;
78877;SDS011;68257;43.514;1.498;2024-01-06T02:17:46;4.97;;;1.90;;
78877;SDS011;68257;43.514;1.498;2024-01-06T02:20:12;5.97;;;1.93;;
78877;SDS011;68257;43.514;1.498;2024-01-06T02:22:38;5.18;;;1.80;;
78877;SDS011;68257;43.514;1.498;2024-01-06T02:25:04;4.93;;;2.07;;
78877;SDS011;68257;43.514;1.498;2024-01-06T02:27:32;6.15;;;1.90;;
78877;SDS011;68257;43.514;1.498;2024-01-06T02:29:58;5.93;;;2.10;;
78877;SDS011;68257;43.514;1.498;2024-01-06T02:32:23;5.33;;;2.00;;
78877;SDS011;68257;43.514;1.498;2024-01-06T02:34:49;5.55;;;2.00;;
78877;SDS011;68257;43.514;1.498;2024-01-06T02:37:14;4.45;;;1.90;;
78877;SDS011;68257;43.514;1.498;2024-01-06T02:39:39;5.87;;;2.17;;
78877;SDS011;68257;43.514;1.498;2024-01-06T02:42:05;5.77;;;1.90;;
78877;SDS011;68257;43.514;1.498;2024-01-06T02:44:30;6.17;;;2.07;;
78877;SDS011;68257;43.514;1.498;2024-01-06T02:46:55;7.37;;;1.83;;
78877;SDS011;68257;43.514;1.498;2024-01-06T02:49:21;6.83;;;1.83;;
78877;SDS011;68257;43.514;1.498;2024-01-06T02:51:46;3.92;;;1.77;;
78877;SDS011;68257;43.514;1.498;2024-01-06T02:54:12;6.30;;;2.10;;
78877;SDS011;68257;43.514;1.498;2024-01-06T02:56:37;5.13;;;1.90;;
78877;SDS011;68257;43.514;1.498;2024-01-06T02:59:03;6.30;;;1.90;;
78877;SDS011;68257;43.514;1.498;2024-01-06T03:01:28;5.50;;;1.70;;
78877;SDS011;68257;43.514;1.498;2024-01-06T03:03:54;4.43;;;1.70;;
78877;SDS011;68257;43.514;1.498;2024-01-06T03:06:19;4.97;;;2.03;;
78877;SDS011;68257;43.514;1.498;2024-01-06T03:08:44;6.97;;;2.00;;
78877;SDS011;68257;43.514;1.498;2024-01-06T03:11:10;4.53;;;1.50;;
78877;SDS011;68257;43.514;1.498;2024-01-06T03:13:35;5.13;;;2.10;;
78877;SDS011;68257;43.514;1.498;2024-01-06T03:16:03;5.68;;;1.80;;
78877;SDS011;68257;43.514;1.498;2024-01-06T03:18:30;4.63;;;1.88;;
78877;SDS011;68257;43.514;1.498;2024-01-06T03:20:55;5.33;;;1.70;;
78877;SDS011;68257;43.514;1.498;2024-01-06T03:23:20;4.57;;;1.50;;
78877;SDS011;68257;43.514;1.498;2024-01-06T03:25:46;5.93;;;1.60;;
78877;SDS011;68257;43.514;1.498;2024-01-06T03:28:11;3.03;;;1.43;;
78877;SDS011;68257;43.514;1.498;2024-01-06T03:30:37;5.47;;;1.77;;
78877;SDS011;68257;43.514;1.498;2024-01-06T03:33:02;5.27;;;1.70;;
78877;SDS011;68257;43.514;1.498;2024-01-06T03:35:28;5.18;;;1.88;;
78877;SDS011;68257;43.514;1.498;2024-01-06T03:37:53;5.83;;;1.80;;
78877;SDS011;68257;43.514;1.498;2024-01-06T03:40:18;5.60;;;1.80;;
78877;SDS011;68257;43.514;1.498;2024-01-06T03:42:44;4.27;;;1.60;;
78877;SDS011;68257;43.514;1.498;2024-01-06T03:45:09;5.57;;;1.67;;
78877;SDS011;68257;43.514;1.498;2024-01-06T03:47:34;5.37;;;1.50;;
78877;SDS011;68257;43.514;1.498;2024-01-06T03:50:00;5.13;;;1.55;;
78877;SDS011;68257;43.514;1.498;2024-01-06T03:52:25;7.50;;;1.38;;
78877;SDS011;68257;43.514;1.498;2024-01-06T03:54:51;3.77;;;1.60;;
78877;SDS011;68257;43.514;1.498;2024-01-06T03:57:16;5.87;;;1.57;;
78877;SDS011;68257;43.514;1.498;2024-01-06T03:59:42;6.20;;;1.60;;
78877;SDS011;68257;43.514;1.498;2024-01-06T04:02:07;5.20;;;1.55;;
78877;SDS011;68257;43.514;1.498;2024-01-06T04:04:33;7.23;;;1.40;;
78877;SDS011;68257;43.514;1.498;2024-01-06T04:06:58;5.53;;;1.50;;
78877;SDS011;68257;43.514;1.498;2024-01-06T04:09:23;7.07;;;1.40;;
78877;SDS011;68257;43.514;1.498;2024-01-06T04:11:49;7.23;;;1.50;;
78877;SDS011;68257;43.514;1.498;2024-01-06T04:14:14;5.25;;;1.65;;
78877;SDS011;68257;43.514;1.498;2024-01-06T04:16:39;5.77;;;1.40;;
78877;SDS011;68257;43.514;1.498;2024-01-06T04:19:05;5.80;;;1.33;;
78877;SDS011;68257;43.514;1.498;2024-01-06T04:21:32;6.57;;;1.50;;
78877;SDS011;68257;43.514;1.498;2024-01-06T04:23:57;5.03;;;1.40;;
78877;SDS011;68257;43.514;1.498;2024-01-06T04:26:23;5.30;;;1.43;;
78877;SDS011;68257;43.514;1.498;2024-01-06T04:28:48;5.60;;;1.50;;
78877;SDS011;68257;43.514;1.498;2024-01-06T04:31:14;6.23;;;1.27;;
78877;SDS011;68257;43.514;1.498;2024-01-06T04:33:39;5.47;;;1.30;;
78877;SDS011;68257;43.514;1.498;2024-01-06T04:36:05;4.32;;;1.20;;
78877;SDS011;68257;43.514;1.498;2024-01-06T04:38:31;4.35;;;1.40;;
78877;SDS011;68257;43.514;1.498;2024-01-06T04:40:57;5.03;;;1.10;;
78877;SDS011;68257;43.514;1.498;2024-01-06T04:43:22;4.47;;;1.23;;
78877;SDS011;68257;43.514;1.498;2024-01-06T04:45:48;5.97;;;1.20;;
78877;SDS011;68257;43.514;1.498;2024-01-06T04:48:15;5.82;;;1.50;;
78877;SDS011;68257;43.514;1.498;2024-01-06T04:50:40;9.03;;;1.20;;
78877;SDS011;68257;43.514;1.498;2024-01-06T04:53:05;5.27;;;1.50;;
78877;SDS011;68257;43.514;1.498;2024-01-06T04:55:31;6.93;;;1.60;;
78877;SDS011;68257;43.514;1.498;2024-01-06T04:57:56;5.65;;;1.52;;
78877;SDS011;68257;43.514;1.498;2024-01-06T05:00:22;6.22;;;1.38;;
78877;SDS011;68257;43.514;1.498;2024-01-06T05:02:47;5.23;;;1.40;;
78877;SDS011;68257;43.514;1.498;2024-01-06T05:05:13;4.93;;;1.47;;
78877;SDS011;68257;43.514;1.498;2024-01-06T05:07:38;7.07;;;1.75;;
78877;SDS011;68257;43.514;1.498;2024-01-06T05:10:04;3.60;;;1.30;;
78877;SDS011;68257;43.514;1.498;2024-01-06T05:12:30;6.10;;;1.70;;
78877;SDS011;68257;43.514;1.498;2024-01-06T05:14:55;5.47;;;1.80;;
78877;SDS011;68257;43.514;1.498;2024-01-06T05:17:20;6.17;;;1.70;;
78877;SDS011;68257;43.514;1.498;2024-01-06T05:19:46;9.10;;;1.63;;
78877;SDS011;68257;43.514;1.498;2024-01-06T05:22:11;5.83;;;1.80;;
78877;SDS011;68257;43.514;1.498;2024-01-06T05:24:37;6.40;;;1.87;;
78877;SDS011;68257;43.514;1.498;2024-01-06T05:27:02;6.32;;;1.75;;
78877;SDS011;68257;43.514;1.498;2024-01-06T05:29:28;6.30;;;1.67;;
78877;SDS011;68257;43.514;1.498;2024-01-06T05:31:53;6.70;;;1.70;;
78877;SDS011;68257;43.514;1.498;2024-01-06T05:34:18;7.30;;;1.93;;
78877;SDS011;68257;43.514;1.498;2024-01-06T05:36:44;3.83;;;1.70;;
78877;SDS011;68257;43.514;1.498;2024-01-06T05:39:09;6.53;;;2.00;;
78877;SDS011;68257;43.514;1.498;2024-01-06T05:41:38;7.20;;;2.00;;
78877;SDS011;68257;43.514;1.498;2024-01-06T05:44:04;4.15;;;1.85;;
78877;SDS011;68257;43.514;1.498;2024-01-06T05:46:30;6.03;;;2.00;;
78877;SDS011;68257;43.514;1.498;2024-01-06T05:48:55;7.65;;;2.22;;
78877;SDS011;68257;43.514;1.498;2024-01-06T05:51:21;6.78;;;2.05;;
78877;SDS011;68257;43.514;1.498;2024-01-06T05:53:46;7.15;;;1.83;;
78877;SDS011;68257;43.514;1.498;2024-01-06T05:56:21;7.07;;;2.20;;
78877;SDS011;68257;43.514;1.498;2024-01-06T05:58:48;4.17;;;1.77;;
78877;SDS011;68257;43.514;1.498;2024-01-06T06:01:14;7.22;;;2.10;;
78877;SDS011;68257;43.514;1.498;2024-01-06T06:03:39;4.93;;;1.77;;
78877;SDS011;68257;43.514;1.498;2024-01-06T06:06:04;5.03;;;2.03;;
78877;SDS011;68257;43.514;1.498;2024-01-06T06:08:30;5.50;;;1.90;;
78877;SDS011;68257;43.514;1.498;2024-01-06T06:10:55;6.33;;;2.17;;
78877;SDS011;68257;43.514;1.498;2024-01-06T06:13:29;7.07;;;2.30;;
78877;SDS011;68257;43.514;1.498;2024-01-06T06:15:55;7.22;;;2.20;;
78877;SDS011;68257;43.514;1.498;2024-01-06T06:18:20;5.93;;;2.13;;
78877;SDS011;68257;43.514;1.498;2024-01-06T06:20:46;6.00;;;2.20;;
78877;SDS011;68257;43.514;1.498;2024-01-06T06:23:12;6.78;;;2.60;;
78877;SDS011;68257;43.514;1.498;2024-01-06T06:25:40;6.63;;;2.60;;
78877;SDS011;68257;43.514;1.498;2024-01-06T06:28:06;6.68;;;3.15;;
78877;SDS011;68257;43.514;1.498;2024-01-06T06:30:31;8.43;;;2.60;;
78877;SDS011;68257;43.514;1.498;2024-01-06T06:32:57;7.38;;;2.40;;
78877;SDS011;68257;43.514;1.498;2024-01-06T06:35:23;5.47;;;2.20;;
78877;SDS011;68257;43.514;1.498;2024-01-06T06:37:49;5.90;;;1.92;;
78877;SDS011;68257;43.514;1.498;2024-01-06T06:40:14;5.53;;;2.07;;
78877;SDS011;68257;43.514;1.498;2024-01-06T06:42:40;4.40;;;1.90;;
78877;SDS011;68257;43.514;1.498;2024-01-06T06:45:05;5.28;;;1.83;;
78877;SDS011;68257;43.514;1.498;2024-01-06T06:47:31;5.47;;;2.20;;
78877;SDS011;68257;43.514;1.498;2024-01-06T06:49:56;7.50;;;2.20;;
78877;SDS011;68257;43.514;1.498;2024-01-06T06:52:21;4.60;;;2.30;;
78877;SDS011;68257;43.514;1.498;2024-01-06T06:54:47;7.13;;;2.45;;
78877;SDS011;68257;43.514;1.498;2024-01-06T06:57:14;5.20;;;2.20;;
78877;SDS011;68257;43.514;1.498;2024-01-06T06:59:40;6.53;;;2.50;;
78877;SDS011;68257;43.514;1.498;2024-01-06T07:02:05;6.43;;;2.50;;
78877;SDS011;68257;43.514;1.498;2024-01-06T07:04:31;5.50;;;1.80;;
78877;SDS011;68257;43.514;1.498;2024-01-06T07:06:56;6.90;;;2.33;;
78877;SDS011;68257;43.514;1.498;2024-01-06T07:09:22;6.18;;;1.83;;
78877;SDS011;68257;43.514;1.498;2024-01-06T07:11:50;7.43;;;2.78;;
78877;SDS011;68257;43.514;1.498;2024-01-06T07:14:16;7.00;;;2.97;;
78877;SDS011;68257;43.514;1.498;2024-01-06T07:16:41;7.17;;;2.27;;
78877;SDS011;68257;43.514;1.498;2024-01-06T07:19:07;4.35;;;1.98;;
78877;SDS011;68257;43.514;1.498;2024-01-06T07:21:32;4.20;;;1.80;;
78877;SDS011;68257;43.514;1.498;2024-01-06T07:23:57;3.63;;;1.50;;
78877;SDS011;68257;43.514;1.498;2024-01-06T07:26:23;5.37;;;1.70;;
78877;SDS011;68257;43.514;1.498;2024-01-06T07:28:48;4.07;;;1.67;;
78877;SDS011;68257;43.514;1.498;2024-01-06T07:31:14;6.60;;;2.10;;
78877;SDS011;68257;43.514;1.498;2024-01-06T07:33:39;4.97;;;1.60;;
78877;SDS011;68257;43.514;1.498;2024-01-06T07:36:05;6.40;;;2.50;;
78877;SDS011;68257;43.514;1.498;2024-01-06T07:38:31;5.00;;;2.10;;
78877;SDS011;68257;43.514;1.498;2024-01-06T07:40:56;5.77;;;2.23;;
78877;SDS011;68257;43.514;1.498;2024-01-06T07:43:22;5.10;;;2.30;;
78877;SDS011;68257;43.514;1.498;2024-01-06T07:45:47;3.85;;;1.50;;
78877;SDS011;68257;43.514;1.498;2024-01-06T07:48:13;4.97;;;1.50;;
78877;SDS011;68257;43.514;1.498;2024-01-06T07:50:39;4.38;;;1.60;;
78877;SDS011;68257;43.514;1.498;2024-01-06T07:53:04;4.00;;;1.40;;
78877;SDS011;68257;43.514;1.498;2024-01-06T07:55:29;5.53;;;1.53;;
78877;SDS011;68257;43.514;1.498;2024-01-06T07:57:55;3.63;;;1.33;;
78877;SDS011;68257;43.514;1.498;2024-01-06T08:00:20;3.93;;;1.33;;
78877;SDS011;68257;43.514;1.498;2024-01-06T08:02:46;3.40;;;1.13;;
78877;SDS011;68257;43.514;1.498;2024-01-06T08:05:11;2.97;;;1.30;;
78877;SDS011;68257;43.514;1.498;2024-01-06T08:07:37;2.83;;;1.00;;
78877;SDS011;68257;43.514;1.498;2024-01-06T08:10:02;5.20;;;1.23;;
78877;SDS011;68257;43.514;1.498;2024-01-06T08:12:31;3.60;;;1.20;;
78877;SDS011;68257;43.514;1.498;2024-01-06T08:14:56;3.63;;;1.20;;
78877;SDS011;68257;43.514;1.498;2024-01-06T08:17:22;2.97;;;0.90;;
78877;SDS011;68257;43.514;1.498;2024-01-06T08:19:47;2.43;;;1.00;;
78877;SDS011;68257;43.514;1.498;2024-01-06T08:22:13;2.83;;;1.10;;
78877;SDS011;68257;43.514;1.498;2024-01-06T08:24:38;3.13;;;1.10;;
78877;SDS011;68257;43.514;1.498;2024-01-06T08:27:04;2.47;;;1.00;;
78877;SDS011;68257;43.514;1.498;2024-01-06T08:29:30;2.80;;;0.93;;
78877;SDS011;68257;43.514;1.498;2024-01-06T08:31:55;3.30;;;0.90;;
78877;SDS011;68257;43.514;1.498;2024-01-06T08:34:21;3.10;;;1.10;;
78877;SDS011;68257;43.514;1.498;2024-01-06T08:36:46;3.03;;;1.00;;
78877;SDS011;68257;43.514;1.498;2024-01-06T08:39:12;2.60;;;0.95;;
78877;SDS011;68257;43.514;1.498;2024-01-06T08:41:38;3.03;;;1.10;;
78877;SDS011;68257;43.514;1.498;2024-01-06T08:44:03;6.47;;;1.30;;
78877;SDS011;68257;43.514;1.498;2024-01-06T08:46:29;3.20;;;1.10;;
78877;SDS011;68257;43.514;1.498;2024-01-06T08:48:55;2.40;;;1.05;;
78877;SDS011;68257;43.514;1.498;2024-01-06T08:51:21;6.35;;;1.90;;
78877;SDS011;68257;43.514;1.498;2024-01-06T08:53:46;3.67;;;1.37;;
78877;SDS011;68257;43.514;1.498;2024-01-06T08:56:12;2.67;;;1.10;;
78877;SDS011;68257;43.514;1.498;2024-01-06T08:58:37;3.80;;;0.97;;
78877;SDS011;68257;43.514;1.498;2024-01-06T09:01:02;4.63;;;1.30;;
78877;SDS011;68257;43.514;1.498;2024-01-06T09:03:28;2.80;;;1.10;;
78877;SDS011;68257;43.514;1.498;2024-01-06T09:05:54;3.80;;;1.20;;
78877;SDS011;68257;43.514;1.498;2024-01-06T09:08:20;3.37;;;1.30;;
78877;SDS011;68257;43.514;1.498;2024-01-06T09:10:46;3.60;;;1.40;;
78877;SDS011;68257;43.514;1.498;2024-01-06T09:13:11;3.43;;;1.30;;
78877;SDS011;68257;43.514;1.498;2024-01-06T09:15:37;3.60;;;1.27;;
78877;SDS011;68257;43.514;1.498;2024-01-06T09:18:02;4.50;;;1.40;;
78877;SDS011;68257;43.514;1.498;2024-01-06T09:20:28;5.90;;;1.70;;
78877;SDS011;68257;43.514;1.498;2024-01-06T09:22:53;3.05;;;1.30;;
78877;SDS011;68257;43.514;1.498;2024-01-06T09:25:19;3.77;;;1.30;;
78877;SDS011;68257;43.514;1.498;2024-01-06T09:27:44;3.42;;;1.20;;
78877;SDS011;68257;43.514;1.498;2024-01-06T09:30:10;4.30;;;1.50;;
78877;SDS011;68257;43.514;1.498;2024-01-06T09:32:36;4.43;;;1.40;;
78877;SDS011;68257;43.514;1.498;2024-01-06T09:35:01;4.45;;;1.40;;
78877;SDS011;68257;43.514;1.498;2024-01-06T09:37:27;3.20;;;1.60;;
78877;SDS011;68257;43.514;1.498;2024-01-06T09:39:52;4.17;;;1.40;;
78877;SDS011;68257;43.514;1.498;2024-01-06T09:42:17;4.30;;;1.33;;
78877;SDS011;68257;43.514;1.498;2024-01-06T09:44:43;4.20;;;1.60;;
78877;SDS011;68257;43.514;1.498;2024-01-06T09:47:09;6.18;;;2.10;;
78877;SDS011;68257;43.514;1.498;2024-01-06T09:49:37;3.97;;;1.30;;
78877;SDS011;68257;43.514;1.498;2024-01-06T09:52:04;3.87;;;1.03;;
78877;SDS011;68257;43.514;1.498;2024-01-06T09:54:36;2.85;;;1.00;;
78877;SDS011;68257;43.514;1.498;2024-01-06T09:57:04;3.88;;;1.30;;
78877;SDS011;68257;43.514;1.498;2024-01-06T09:59:31;4.18;;;1.13;;
78877;SDS011;68257;43.514;1.498;2024-01-06T10:01:59;4.78;;;1.60;;
78877;SDS011;68257;43.514;1.498;2024-01-06T10:04:25;4.50;;;1.70;;
78877;SDS011;68257;43.514;1.498;2024-01-06T10:06:50;3.43;;;1.50;;
78877;SDS011;68257;43.514;1.498;2024-01-06T10:09:16;3.83;;;1.25;;
78877;SDS011;68257;43.514;1.498;2024-01-06T10:11:41;3.10;;;1.00;;
78877;SDS011;68257;43.514;1.498;2024-01-06T10:14:08;3.03;;;1.05;;
78877;SDS011;68257;43.514;1.498;2024-01-06T10:16:33;4.23;;;0.97;;
78877;SDS011;68257;43.514;1.498;2024-01-06T10:18:59;4.03;;;1.20;;
78877;SDS011;68257;43.514;1.498;2024-01-06T10:21:25;2.97;;;1.20;;
78877;SDS011;68257;43.514;1.498;2024-01-06T10:23:51;4.50;;;1.20;;
78877;SDS011;68257;43.514;1.498;2024-01-06T10:26:16;2.95;;;1.30;;
78877;SDS011;68257;43.514;1.498;2024-01-06T10:28:42;3.10;;;1.10;;
78877;SDS011;68257;43.514;1.498;2024-01-06T10:31:08;4.18;;;1.50;;
78877;SDS011;68257;43.514;1.498;2024-01-06T10:33:33;5.03;;;1.60;;
78877;SDS011;68257;43.514;1.498;2024-01-06T10:36:00;5.40;;;1.90;;
78877;SDS011;68257;43.514;1.498;2024-01-06T10:38:28;3.55;;;1.45;;
78877;SDS011;68257;43.514;1.498;2024-01-06T10:43:31;5.67;;;2.13;;
78877;SDS011;68257;43.514;1.498;2024-01-06T10:46:01;6.65;;;2.08;;
78877;SDS011;68257;43.514;1.498;2024-01-06T10:48:30;7.38;;;1.95;;
78877;SDS011;68257;43.514;1.498;2024-01-06T10:50:58;5.97;;;1.45;;
78877;SDS011;68257;43.514;1.498;2024-01-06T10:53:24;4.90;;;1.47;;
78877;SDS011;68257;43.514;1.498;2024-01-06T10:55:53;4.93;;;1.50;;
78877;SDS011;68257;43.514;1.498;2024-01-06T10:58:19;4.35;;;1.77;;
78877;SDS011;68257;43.514;1.498;2024-01-06T11:00:45;4.40;;;1.87;;
78877;SDS011;68257;43.514;1.498;2024-01-06T11:03:11;5.18;;;1.75;;
78877;SDS011;68257;43.514;1.498;2024-01-06T11:05:38;7.17;;;1.90;;
78877;SDS011;68257;43.514;1.498;2024-01-06T11:08:05;4.50;;;1.60;;
78877;SDS011;68257;43.514;1.498;2024-01-06T11:10:31;5.10;;;1.98;;
78877;SDS011;68257;43.514;1.498;2024-01-06T11:13:09;8.57;;;1.77;;
78877;SDS011;68257;43.514;1.498;2024-01-06T11:15:39;5.25;;;1.80;;
78877;SDS011;68257;43.514;1.498;2024-01-06T11:18:05;3.03;;;1.13;;
78877;SDS011;68257;43.514;1.498;2024-01-06T11:20:31;4.70;;;1.20;;
78877;SDS011;68257;43.514;1.498;2024-01-06T11:22:58;3.87;;;1.37;;
78877;SDS011;68257;43.514;1.498;2024-01-06T11:25:42;4.70;;;1.60;;
78877;SDS011;68257;43.514;1.498;2024-01-06T11:28:08;5.00;;;1.60;;
78877;SDS011;68257;43.514;1.498;2024-01-06T11:30:34;6.45;;;1.63;;
78877;SDS011;68257;43.514;1.498;2024-01-06T11:33:00;4.53;;;1.63;;
78877;SDS011;68257;43.514;1.498;2024-01-06T11:35:26;3.20;;;1.63;;
78877;SDS011;68257;43.514;1.498;2024-01-06T11:37:53;3.03;;;1.40;;
78877;SDS011;68257;43.514;1.498;2024-01-06T11:42:45;3.30;;;1.40;;
78877;SDS011;68257;43.514;1.498;2024-01-06T11:45:12;4.00;;;1.58;;
78877;SDS011;68257;43.514;1.498;2024-01-06T11:47:38;5.07;;;1.90;;
78877;SDS011;68257;43.514;1.498;2024-01-06T11:50:04;3.10;;;1.33;;
78877;SDS011;68257;43.514;1.498;2024-01-06T11:52:34;4.33;;;1.50;;
78877;SDS011;68257;43.514;1.498;2024-01-06T11:54:59;4.95;;;1.63;;
78877;SDS011;68257;43.514;1.498;2024-01-06T11:57:26;4.70;;;1.70;;
78877;SDS011;68257;43.514;1.498;2024-01-06T11:59:52;4.32;;;1.70;;
78877;SDS011;68257;43.514;1.498;2024-01-06T12:02:18;3.47;;;1.87;;
78877;SDS011;68257;43.514;1.498;2024-01-06T12:04:53;4.43;;;1.50;;
78877;SDS011;68257;43.514;1.498;2024-01-06T12:07:19;5.70;;;1.87;;
78877;SDS011;68257;43.514;1.498;2024-01-06T12:09:47;4.05;;;1.65;;
78877;SDS011;68257;43.514;1.498;2024-01-06T12:12:15;4.35;;;1.50;;
78877;SDS011;68257;43.514;1.498;2024-01-06T12:14:41;5.47;;;1.23;;
78877;SDS011;68257;43.514;1.498;2024-01-06T12:17:11;3.67;;;1.33;;
78877;SDS011;68257;43.514;1.498;2024-01-06T12:19:38;4.47;;;1.20;;
78877;SDS011;68257;43.514;1.498;2024-01-06T12:22:04;2.88;;;1.20;;
78877;SDS011;68257;43.514;1.498;2024-01-06T12:24:29;5.47;;;1.35;;
78877;SDS011;68257;43.514;1.498;2024-01-06T12:26:56;4.07;;;1.25;;
78877;SDS011;68257;43.514;1.498;2024-01-06T12:29:22;4.10;;;1.30;;
78877;SDS011;68257;43.514;1.498;2024-01-06T12:31:48;4.00;;;1.07;;
78877;SDS011;68257;43.514;1.498;2024-01-06T12:34:13;3.28;;;1.60;;
78877;SDS011;68257;43.514;1.498;2024-01-06T12:36:39;3.60;;;1.48;;
78877;SDS011;68257;43.514;1.498;2024-01-06T12:39:06;3.07;;;1.30;;
78877;SDS011;68257;43.514;1.498;2024-01-06T12:41:39;6.10;;;1.40;;
78877;SDS011;68257;43.514;1.498;2024-01-06T12:44:06;3.30;;;1.20;;
78877;SDS011;68257;43.514;1.498;2024-01-06T12:46:32;4.50;;;1.30;;
78877;SDS011;68257;43.514;1.498;2024-01-06T12:48:57;4.33;;;1.33;;
78877;SDS011;68257;43.514;1.498;2024-01-06T12:51:23;2.83;;;0.97;;
78877;SDS011;68257;43.514;1.498;2024-01-06T12:53:48;3.90;;;1.30;;
78877;SDS011;68257;43.514;1.498;2024-01-06T12:56:13;4.67;;;1.90;;
78877;SDS011;68257;43.514;1.498;2024-01-06T12:58:40;5.65;;;2.13;;
78877;SDS011;68257;43.514;1.498;2024-01-06T13:01:05;7.13;;;3.65;;
78877;SDS011;68257;43.514;1.498;2024-01-06T13:03:32;5.87;;;2.20;;
78877;SDS011;68257;43.514;1.498;2024-01-06T13:05:58;4.97;;;1.80;;
78877;SDS011;68257;43.514;1.498;2024-01-06T13:08:23;5.28;;;2.03;;
78877;SDS011;68257;43.514;1.498;2024-01-06T13:10:49;5.33;;;2.40;;
78877;SDS011;68257;43.514;1.498;2024-01-06T13:13:15;4.78;;;1.98;;
78877;SDS011;68257;43.514;1.498;2024-01-06T13:15:40;3.23;;;1.30;;
78877;SDS011;68257;43.514;1.498;2024-01-06T13:18:06;5.13;;;1.60;;
78877;SDS011;68257;43.514;1.498;2024-01-06T13:20:31;5.97;;;1.60;;
78877;SDS011;68257;43.514;1.498;2024-01-06T13:22:57;3.88;;;1.50;;
78877;SDS011;68257;43.514;1.498;2024-01-06T13:25:22;4.68;;;1.35;;
78877;SDS011;68257;43.514;1.498;2024-01-06T13:27:48;6.97;;;3.27;;
78877;SDS011;68257;43.514;1.498;2024-01-06T13:30:15;6.03;;;2.95;;
78877;SDS011;68257;43.514;1.498;2024-01-06T13:32:40;6.07;;;2.50;;
78877;SDS011;68257;43.514;1.498;2024-01-06T13:35:06;3.55;;;1.80;;
78877;SDS011;68257;43.514;1.498;2024-01-06T13:37:32;3.90;;;1.50;;
78877;SDS011;68257;43.514;1.498;2024-01-06T13:39:57;3.28;;;1.30;;
78877;SDS011;68257;43.514;1.498;2024-01-06T13:42:23;2.90;;;1.10;;
78877;SDS011;68257;43.514;1.498;2024-01-06T13:44:48;4.80;;;1.97;;
78877;SDS011;68257;43.514;1.498;2024-01-06T13:47:14;4.03;;;1.40;;
78877;SDS011;68257;43.514;1.498;2024-01-06T13:49:39;4.63;;;1.40;;
78877;SDS011;68257;43.514;1.498;2024-01-06T13:52:05;3.40;;;1.60;;
78877;SDS011;68257;43.514;1.498;2024-01-06T13:54:32;5.75;;;1.92;;
78877;SDS011;68257;43.514;1.498;2024-01-06T13:56:58;7.40;;;3.00;;
78877;SDS011;68257;43.514;1.498;2024-01-06T13:59:24;8.23;;;2.80;;
78877;SDS011;68257;43.514;1.498;2024-01-06T14:01:49;7.10;;;2.73;;
78877;SDS011;68257;43.514;1.498;2024-01-06T14:04:15;9.37;;;3.20;;
78877;SDS011;68257;43.514;1.498;2024-01-06T14:06:41;4.65;;;1.65;;
78877;SDS011;68257;43.514;1.498;2024-01-06T14:09:07;6.00;;;2.23;;
78877;SDS011;68257;43.514;1.498;2024-01-06T14:11:33;4.78;;;1.90;;
78877;SDS011;68257;43.514;1.498;2024-01-06T14:13:58;7.70;;;2.60;;
78877;SDS011;68257;43.514;1.498;2024-01-06T14:16:24;10.80;;;2.90;;
78877;SDS011;68257;43.514;1.498;2024-01-06T14:18:49;6.20;;;2.65;;
78877;SDS011;68257;43.514;1.498;2024-01-06T14:21:15;6.95;;;2.47;;
78877;SDS011;68257;43.514;1.498;2024-01-06T14:23:43;9.07;;;3.63;;
78877;SDS011;68257;43.514;1.498;2024-01-06T14:26:08;7.07;;;2.50;;
78877;SDS011;68257;43.514;1.498;2024-01-06T14:28:34;9.07;;;3.20;;
78877;SDS011;68257;43.514;1.498;2024-01-06T14:30:59;8.30;;;3.23;;
78877;SDS011;68257;43.514;1.498;2024-01-06T14:33:25;4.57;;;2.05;;
78877;SDS011;68257;43.514;1.498;2024-01-06T14:35:52;7.27;;;2.97;;
78877;SDS011;68257;43.514;1.498;2024-01-06T14:38:18;8.02;;;2.95;;
78877;SDS011;68257;43.514;1.498;2024-01-06T14:40:44;8.85;;;4.50;;
78877;SDS011;68257;43.514;1.498;2024-01-06T14:43:09;5.63;;;3.10;;
78877;SDS011;68257;43.514;1.498;2024-01-06T14:45:35;4.07;;;1.90;;